CCA1425 ZGHA-ZSSS
Flight info
| Callsign | CCA1425 |
|---|---|
| Flight time | 1h 20m |
| Altitude | 37100 |
| Route | GUD9X GUDRO W56 IDPOG A581 WHA R343 SASAN SAS71A |
| Aircraft | A320/M-SDE3FGHIRWY/LB1 |
Departure
| Time | 2026-05-07 15:36 |
|---|---|
| Airport | Changsha Huanghua International Airport (ZGHA) |
Arrival
| Time | 2026-05-07 16:57 |
|---|---|
| Airport | Shanghai Hongqiao International Airport (ZSSS) |
| Time | Latitude | Longitude | Altitude | Speed | Heading |
|---|---|---|---|---|---|
| 2026-05-07 15:01 | 28.18742 | 113.21595 | 214 ft | 0 kts | 268° |
| 2026-05-07 15:25 | 28.18743 | 113.21602 | 213 ft | 4 kts | 268° |
| 2026-05-07 15:25 | 28.18744 | 113.21633 | 213 ft | 4 kts | 268° |
| 2026-05-07 15:25 | 28.18745 | 113.21659 | 214 ft | 4 kts | 261° |
| 2026-05-07 15:26 | 28.18754 | 113.21682 | 217 ft | 4 kts | 202° |
| 2026-05-07 15:26 | 28.18780 | 113.21686 | 218 ft | 4 kts | 176° |
| 2026-05-07 15:26 | 28.18790 | 113.21685 | 214 ft | 0 kts | 177° |
| 2026-05-07 15:29 | 28.18783 | 113.21685 | 217 ft | 1 kts | 178° |
| 2026-05-07 15:29 | 28.18775 | 113.21686 | 219 ft | 1 kts | 178° |
| 2026-05-07 15:29 | 28.18730 | 113.21688 | 220 ft | 15 kts | 177° |
| 2026-05-07 15:29 | 28.18632 | 113.21694 | 213 ft | 12 kts | 178° |
| 2026-05-07 15:30 | 28.18583 | 113.21738 | 218 ft | 2 kts | 90° |
| 2026-05-07 15:30 | 28.18584 | 113.21740 | 217 ft | 1 kts | 86° |
| 2026-05-07 15:31 | 28.18584 | 113.21750 | 214 ft | 5 kts | 86° |
| 2026-05-07 15:31 | 28.18551 | 113.21811 | 222 ft | 11 kts | 165° |
| 2026-05-07 15:31 | 28.18479 | 113.21816 | 217 ft | 10 kts | 178° |
| 2026-05-07 15:31 | 28.18407 | 113.21821 | 217 ft | 11 kts | 177° |
| 2026-05-07 15:32 | 28.18299 | 113.21827 | 214 ft | 17 kts | 176° |
| 2026-05-07 15:32 | 28.18184 | 113.21834 | 214 ft | 15 kts | 177° |
| 2026-05-07 15:32 | 28.18082 | 113.21840 | 214 ft | 14 kts | 177° |
| 2026-05-07 15:32 | 28.17991 | 113.21846 | 214 ft | 13 kts | 176° |
| 2026-05-07 15:33 | 28.17909 | 113.21851 | 214 ft | 11 kts | 177° |
| 2026-05-07 15:33 | 28.17838 | 113.21856 | 216 ft | 10 kts | 177° |
| 2026-05-07 15:33 | 28.17776 | 113.21865 | 215 ft | 8 kts | 161° |
| 2026-05-07 15:33 | 28.17743 | 113.21905 | 217 ft | 6 kts | 105° |
| 2026-05-07 15:34 | 28.17742 | 113.21945 | 215 ft | 4 kts | 91° |
| 2026-05-07 15:34 | 28.17742 | 113.21977 | 216 ft | 6 kts | 90° |
| 2026-05-07 15:34 | 28.17759 | 113.22045 | 221 ft | 10 kts | 35° |
| 2026-05-07 15:34 | 28.17792 | 113.22046 | 219 ft | 0 kts | 355° |
| 2026-05-07 15:35 | 28.17847 | 113.22042 | 220 ft | 25 kts | 357° |
| 2026-05-07 15:36 | 28.18279 | 113.22016 | 218 ft | 96 kts | 356° |
| 2026-05-07 15:36 | 28.19139 | 113.21961 | 218 ft | 149 kts | 356° |
| 2026-05-07 15:36 | 28.20260 | 113.21884 | 632 ft | 164 kts | 355° |
| 2026-05-07 15:36 | 28.21399 | 113.21801 | 1412 ft | 163 kts | 358° |
| 2026-05-07 15:37 | 28.22525 | 113.21730 | 2079 ft | 165 kts | 0° |
| 2026-05-07 15:37 | 28.23712 | 113.21666 | 2367 ft | 184 kts | 0° |
| 2026-05-07 15:37 | 28.25097 | 113.21593 | 2692 ft | 204 kts | 0° |
| 2026-05-07 15:37 | 28.26528 | 113.21510 | 3455 ft | 208 kts | 1° |
| 2026-05-07 15:38 | 28.27945 | 113.21743 | 4214 ft | 207 kts | 27° |
| 2026-05-07 15:38 | 28.29070 | 113.22733 | 5004 ft | 208 kts | 54° |
| 2026-05-07 15:38 | 28.29888 | 113.24104 | 5777 ft | 212 kts | 56° |
| 2026-05-07 15:38 | 28.30721 | 113.25517 | 6484 ft | 218 kts | 56° |
| 2026-05-07 15:39 | 28.31576 | 113.26964 | 7185 ft | 224 kts | 55° |
| 2026-05-07 15:39 | 28.32453 | 113.28443 | 7886 ft | 228 kts | 56° |
| 2026-05-07 15:39 | 28.33346 | 113.29950 | 8600 ft | 233 kts | 55° |
| 2026-05-07 15:39 | 28.34289 | 113.31544 | 8992 ft | 255 kts | 56° |
| 2026-05-07 15:40 | 28.35326 | 113.33295 | 9330 ft | 279 kts | 56° |
| 2026-05-07 15:40 | 28.36436 | 113.35179 | 9896 ft | 293 kts | 56° |
| 2026-05-07 15:40 | 28.37598 | 113.37151 | 10308 ft | 311 kts | 56° |
| 2026-05-07 15:40 | 28.38849 | 113.39265 | 10538 ft | 335 kts | 55° |
| 2026-05-07 15:41 | 28.40198 | 113.41544 | 10743 ft | 358 kts | 55° |
| 2026-05-07 15:41 | 28.41592 | 113.43892 | 11245 ft | 367 kts | 54° |
| 2026-05-07 15:41 | 28.43339 | 113.46021 | 11851 ft | 372 kts | 36° |
| 2026-05-07 15:41 | 28.45590 | 113.47452 | 12500 ft | 373 kts | 18° |
| 2026-05-07 15:42 | 28.48129 | 113.48043 | 13149 ft | 374 kts | 1° |
| 2026-05-07 15:42 | 28.50735 | 113.48231 | 13828 ft | 377 kts | 0° |
| 2026-05-07 15:42 | 28.53369 | 113.48413 | 14429 ft | 381 kts | 0° |
| 2026-05-07 15:42 | 28.56033 | 113.48599 | 15043 ft | 385 kts | 0° |
| 2026-05-07 15:43 | 28.58716 | 113.48788 | 15635 ft | 388 kts | 0° |
| 2026-05-07 15:43 | 28.61431 | 113.48979 | 16216 ft | 392 kts | 0° |
| 2026-05-07 15:43 | 28.64167 | 113.49173 | 16779 ft | 396 kts | 0° |
| 2026-05-07 15:43 | 28.66934 | 113.49374 | 17328 ft | 400 kts | 0° |
| 2026-05-07 15:44 | 28.69724 | 113.49577 | 17866 ft | 404 kts | 0° |
| 2026-05-07 15:44 | 28.72546 | 113.49778 | 18496 ft | 409 kts | 0° |
| 2026-05-07 15:44 | 28.75401 | 113.49981 | 18955 ft | 412 kts | 360° |
| 2026-05-07 15:44 | 28.78273 | 113.50186 | 19431 ft | 415 kts | 359° |
| 2026-05-07 15:45 | 28.81160 | 113.50393 | 19905 ft | 417 kts | 359° |
| 2026-05-07 15:45 | 28.84064 | 113.50602 | 20403 ft | 419 kts | 359° |
| 2026-05-07 15:45 | 28.86982 | 113.50812 | 20873 ft | 421 kts | 359° |
| 2026-05-07 15:45 | 28.89910 | 113.51023 | 21327 ft | 423 kts | 359° |
| 2026-05-07 15:46 | 28.95819 | 113.51449 | 22207 ft | 427 kts | 358° |
| 2026-05-07 15:46 | 28.98794 | 113.51659 | 22656 ft | 430 kts | 358° |
| 2026-05-07 15:46 | 29.01788 | 113.51872 | 23085 ft | 432 kts | 358° |
| 2026-05-07 15:47 | 29.04800 | 113.52090 | 23504 ft | 435 kts | 358° |
| 2026-05-07 15:47 | 29.07831 | 113.52309 | 23856 ft | 437 kts | 358° |
| 2026-05-07 15:47 | 29.10875 | 113.52528 | 24197 ft | 440 kts | 358° |
| 2026-05-07 15:47 | 29.13931 | 113.52752 | 24541 ft | 441 kts | 358° |
| 2026-05-07 15:48 | 29.16963 | 113.52974 | 24854 ft | 443 kts | 358° |
| 2026-05-07 15:48 | 29.20049 | 113.53198 | 25179 ft | 445 kts | 358° |
| 2026-05-07 15:48 | 29.23142 | 113.53424 | 25481 ft | 447 kts | 358° |
| 2026-05-07 15:48 | 29.26255 | 113.53649 | 25817 ft | 449 kts | 357° |
| 2026-05-07 15:49 | 29.29380 | 113.53875 | 26133 ft | 451 kts | 357° |
| 2026-05-07 15:49 | 29.32515 | 113.54122 | 26468 ft | 453 kts | 358° |
| 2026-05-07 15:49 | 29.35665 | 113.54394 | 26795 ft | 455 kts | 358° |
| 2026-05-07 15:49 | 29.38827 | 113.54679 | 27113 ft | 457 kts | 358° |
| 2026-05-07 15:50 | 29.42006 | 113.54967 | 27437 ft | 459 kts | 358° |
| 2026-05-07 15:50 | 29.45197 | 113.55255 | 27734 ft | 461 kts | 357° |
| 2026-05-07 15:50 | 29.48396 | 113.55538 | 28024 ft | 462 kts | 357° |
| 2026-05-07 15:50 | 29.51613 | 113.55817 | 28312 ft | 464 kts | 357° |
| 2026-05-07 15:51 | 29.54841 | 113.56094 | 28601 ft | 466 kts | 357° |
| 2026-05-07 15:51 | 29.58078 | 113.56374 | 28889 ft | 468 kts | 357° |
| 2026-05-07 15:51 | 29.61333 | 113.56657 | 29202 ft | 470 kts | 357° |
| 2026-05-07 15:51 | 29.64597 | 113.56942 | 29469 ft | 472 kts | 357° |
| 2026-05-07 15:52 | 29.67874 | 113.57228 | 29806 ft | 472 kts | 357° |
| 2026-05-07 15:52 | 29.71138 | 113.57512 | 30207 ft | 471 kts | 357° |
| 2026-05-07 15:52 | 29.74399 | 113.57796 | 30546 ft | 470 kts | 357° |
| 2026-05-07 15:52 | 29.77658 | 113.58082 | 30895 ft | 468 kts | 356° |
| 2026-05-07 15:53 | 29.80898 | 113.58366 | 31242 ft | 467 kts | 356° |
| 2026-05-07 15:53 | 29.84138 | 113.58650 | 31595 ft | 466 kts | 356° |
| 2026-05-07 15:53 | 29.87365 | 113.58931 | 31975 ft | 464 kts | 356° |
| 2026-05-07 15:53 | 29.90584 | 113.59215 | 32342 ft | 463 kts | 356° |
| 2026-05-07 15:54 | 29.93791 | 113.59691 | 32699 ft | 470 kts | 4° |
| 2026-05-07 15:54 | 29.96921 | 113.60759 | 33049 ft | 480 kts | 14° |
| 2026-05-07 15:54 | 29.99999 | 113.62276 | 33397 ft | 481 kts | 15° |
| 2026-05-07 15:54 | 30.03069 | 113.63812 | 33749 ft | 480 kts | 15° |
| 2026-05-07 15:55 | 30.06131 | 113.65344 | 34104 ft | 479 kts | 15° |
| 2026-05-07 15:55 | 30.09189 | 113.66870 | 34408 ft | 478 kts | 14° |
| 2026-05-07 15:55 | 30.12244 | 113.68396 | 34724 ft | 477 kts | 14° |
| 2026-05-07 15:55 | 30.15289 | 113.69919 | 35001 ft | 477 kts | 14° |
| 2026-05-07 15:56 | 30.18336 | 113.71442 | 35277 ft | 476 kts | 14° |
| 2026-05-07 15:56 | 30.21381 | 113.72964 | 35546 ft | 476 kts | 14° |
| 2026-05-07 15:56 | 30.24420 | 113.74481 | 35806 ft | 475 kts | 14° |
| 2026-05-07 15:56 | 30.26434 | 113.75489 | 35949 ft | 475 kts | 14° |
| 2026-05-07 15:57 | 30.29466 | 113.77007 | 36182 ft | 475 kts | 14° |
| 2026-05-07 15:57 | 30.32503 | 113.78528 | 36405 ft | 475 kts | 13° |
| 2026-05-07 15:57 | 30.35530 | 113.80048 | 36678 ft | 474 kts | 13° |
| 2026-05-07 15:57 | 30.38560 | 113.81571 | 36924 ft | 474 kts | 13° |
| 2026-05-07 15:58 | 30.41587 | 113.83096 | 37157 ft | 473 kts | 13° |
| 2026-05-07 15:58 | 30.47630 | 113.86135 | 37247 ft | 474 kts | 13° |
| 2026-05-07 15:59 | 30.53680 | 113.89186 | 37244 ft | 474 kts | 13° |
| 2026-05-07 15:59 | 30.59715 | 113.92297 | 37263 ft | 480 kts | 18° |
| 2026-05-07 15:59 | 30.62569 | 113.94423 | 37243 ft | 494 kts | 29° |
| 2026-05-07 16:00 | 30.65117 | 113.97167 | 37242 ft | 507 kts | 40° |
| 2026-05-07 16:00 | 30.67265 | 114.00476 | 37244 ft | 518 kts | 50° |
| 2026-05-07 16:00 | 30.69208 | 114.04013 | 37244 ft | 519 kts | 50° |
| 2026-05-07 16:01 | 30.73089 | 114.11075 | 37238 ft | 519 kts | 51° |
| 2026-05-07 16:01 | 30.76967 | 114.18151 | 37242 ft | 519 kts | 52° |
| 2026-05-07 16:02 | 30.80008 | 114.25817 | 37269 ft | 529 kts | 64° |
| 2026-05-07 16:02 | 30.82642 | 114.33807 | 37262 ft | 529 kts | 64° |
| 2026-05-07 16:03 | 30.85220 | 114.41829 | 37252 ft | 530 kts | 65° |
| 2026-05-07 16:03 | 30.87797 | 114.49877 | 37253 ft | 530 kts | 65° |
| 2026-05-07 16:04 | 30.90400 | 114.57894 | 37252 ft | 529 kts | 64° |
| 2026-05-07 16:04 | 30.93010 | 114.65924 | 37248 ft | 530 kts | 64° |
| 2026-05-07 16:05 | 30.95605 | 114.73949 | 37276 ft | 530 kts | 65° |
| 2026-05-07 16:05 | 30.98195 | 114.81989 | 37261 ft | 529 kts | 65° |
| 2026-05-07 16:06 | 31.00783 | 114.90018 | 37256 ft | 529 kts | 65° |
| 2026-05-07 16:06 | 31.03359 | 114.98054 | 37252 ft | 529 kts | 65° |
| 2026-05-07 16:07 | 31.05932 | 115.06099 | 37249 ft | 529 kts | 65° |
| 2026-05-07 16:07 | 31.08481 | 115.14084 | 37249 ft | 529 kts | 65° |
| 2026-05-07 16:08 | 31.11043 | 115.22145 | 37290 ft | 530 kts | 65° |
| 2026-05-07 16:08 | 31.13589 | 115.30201 | 37263 ft | 528 kts | 65° |
| 2026-05-07 16:09 | 31.16172 | 115.38227 | 37243 ft | 528 kts | 65° |
| 2026-05-07 16:09 | 31.18787 | 115.46241 | 37245 ft | 528 kts | 65° |
| 2026-05-07 16:10 | 31.21394 | 115.54277 | 37249 ft | 529 kts | 65° |
| 2026-05-07 16:10 | 31.23990 | 115.62338 | 37263 ft | 530 kts | 65° |
| 2026-05-07 16:11 | 31.26575 | 115.70413 | 37268 ft | 531 kts | 65° |
| 2026-05-07 16:11 | 31.29153 | 115.78502 | 37272 ft | 531 kts | 65° |
| 2026-05-07 16:12 | 31.31721 | 115.86544 | 37271 ft | 531 kts | 65° |
| 2026-05-07 16:12 | 31.34328 | 115.94635 | 37275 ft | 532 kts | 65° |
| 2026-05-07 16:13 | 31.36981 | 116.02714 | 37270 ft | 532 kts | 65° |
| 2026-05-07 16:13 | 31.39629 | 116.10798 | 37273 ft | 531 kts | 65° |
| 2026-05-07 16:14 | 31.42252 | 116.18888 | 37304 ft | 532 kts | 65° |
| 2026-05-07 16:14 | 31.44870 | 116.26990 | 37276 ft | 532 kts | 65° |
| 2026-05-07 16:15 | 31.47490 | 116.35113 | 37275 ft | 533 kts | 65° |
| 2026-05-07 16:15 | 31.50103 | 116.43235 | 37278 ft | 533 kts | 65° |
| 2026-05-07 16:16 | 31.52716 | 116.51382 | 37279 ft | 533 kts | 65° |
| 2026-05-07 16:16 | 31.55322 | 116.59519 | 37318 ft | 534 kts | 65° |
| 2026-05-07 16:17 | 31.57929 | 116.67671 | 37294 ft | 533 kts | 65° |
| 2026-05-07 16:17 | 31.60508 | 116.75760 | 37291 ft | 533 kts | 65° |
| 2026-05-07 16:18 | 31.63113 | 116.83963 | 37291 ft | 533 kts | 65° |
| 2026-05-07 16:18 | 31.65677 | 116.92071 | 37282 ft | 533 kts | 65° |
| 2026-05-07 16:19 | 31.68255 | 117.00244 | 37292 ft | 534 kts | 65° |
| 2026-05-07 16:19 | 31.70821 | 117.08419 | 37279 ft | 532 kts | 66° |
| 2026-05-07 16:20 | 31.73333 | 117.16574 | 37279 ft | 531 kts | 66° |
| 2026-05-07 16:20 | 31.75824 | 117.24749 | 37275 ft | 532 kts | 69° |
| 2026-05-07 16:21 | 31.77114 | 117.33335 | 37278 ft | 538 kts | 88° |
| 2026-05-07 16:21 | 31.76686 | 117.42108 | 37282 ft | 538 kts | 95° |
| 2026-05-07 16:22 | 31.76075 | 117.50877 | 37274 ft | 539 kts | 95° |
| 2026-05-07 16:22 | 31.75459 | 117.59665 | 37275 ft | 539 kts | 95° |
| 2026-05-07 16:23 | 31.74847 | 117.68455 | 37282 ft | 540 kts | 95° |
| 2026-05-07 16:23 | 31.74224 | 117.77237 | 37284 ft | 540 kts | 95° |
| 2026-05-07 16:24 | 31.73594 | 117.86025 | 37285 ft | 540 kts | 95° |
| 2026-05-07 16:24 | 31.72960 | 117.94754 | 37284 ft | 540 kts | 95° |
| 2026-05-07 16:25 | 31.72317 | 118.03527 | 37288 ft | 538 kts | 95° |
| 2026-05-07 16:25 | 31.71671 | 118.12296 | 37280 ft | 539 kts | 95° |
| 2026-05-07 16:26 | 31.71049 | 118.21079 | 37267 ft | 539 kts | 95° |
| 2026-05-07 16:26 | 31.70450 | 118.29865 | 37268 ft | 540 kts | 95° |
| 2026-05-07 16:27 | 31.69844 | 118.38658 | 37264 ft | 540 kts | 95° |
| 2026-05-07 16:27 | 31.69219 | 118.47454 | 37260 ft | 541 kts | 95° |
| 2026-05-07 16:28 | 31.68576 | 118.56270 | 37256 ft | 541 kts | 95° |
| 2026-05-07 16:28 | 31.67928 | 118.65072 | 37257 ft | 541 kts | 95° |
| 2026-05-07 16:29 | 31.67282 | 118.73878 | 37253 ft | 541 kts | 95° |
| 2026-05-07 16:29 | 31.66635 | 118.82667 | 37255 ft | 541 kts | 95° |
| 2026-05-07 16:30 | 31.65986 | 118.91424 | 37253 ft | 541 kts | 95° |
| 2026-05-07 16:30 | 31.65321 | 119.00225 | 37257 ft | 541 kts | 95° |
| 2026-05-07 16:31 | 31.64694 | 119.09032 | 37257 ft | 542 kts | 94° |
| 2026-05-07 16:31 | 31.64251 | 119.17852 | 37254 ft | 542 kts | 92° |
| 2026-05-07 16:32 | 31.63921 | 119.26722 | 36137 ft | 552 kts | 92° |
| 2026-05-07 16:32 | 31.63747 | 119.31250 | 35303 ft | 555 kts | 93° |
| 2026-05-07 16:32 | 31.63557 | 119.35755 | 34735 ft | 551 kts | 94° |
| 2026-05-07 16:32 | 31.63352 | 119.40225 | 33529 ft | 548 kts | 94° |
| 2026-05-07 16:33 | 31.63138 | 119.44700 | 32070 ft | 550 kts | 94° |
| 2026-05-07 16:33 | 31.62921 | 119.49149 | 31058 ft | 541 kts | 94° |
| 2026-05-07 16:33 | 31.62703 | 119.53534 | 29971 ft | 534 kts | 94° |
| 2026-05-07 16:33 | 31.62489 | 119.57861 | 28770 ft | 527 kts | 93° |
| 2026-05-07 16:34 | 31.62280 | 119.62131 | 27856 ft | 523 kts | 93° |
| 2026-05-07 16:34 | 31.62072 | 119.66371 | 27175 ft | 519 kts | 93° |
| 2026-05-07 16:34 | 31.61868 | 119.70595 | 26399 ft | 518 kts | 93° |
| 2026-05-07 16:34 | 31.61673 | 119.74816 | 25657 ft | 517 kts | 93° |
| 2026-05-07 16:35 | 31.61483 | 119.79020 | 24913 ft | 515 kts | 93° |
| 2026-05-07 16:35 | 31.61300 | 119.83148 | 24185 ft | 513 kts | 93° |
| 2026-05-07 16:35 | 31.61115 | 119.87320 | 23412 ft | 511 kts | 93° |
| 2026-05-07 16:35 | 31.60926 | 119.91465 | 22690 ft | 506 kts | 94° |
| 2026-05-07 16:36 | 31.60733 | 119.95557 | 22010 ft | 500 kts | 94° |
| 2026-05-07 16:36 | 31.60539 | 119.99615 | 21350 ft | 495 kts | 94° |
| 2026-05-07 16:36 | 31.60343 | 120.03625 | 20727 ft | 489 kts | 94° |
| 2026-05-07 16:36 | 31.60149 | 120.07590 | 20116 ft | 484 kts | 95° |
| 2026-05-07 16:37 | 31.59957 | 120.11509 | 19525 ft | 478 kts | 95° |
| 2026-05-07 16:37 | 31.59767 | 120.15379 | 18978 ft | 472 kts | 95° |
| 2026-05-07 16:37 | 31.59583 | 120.19200 | 18424 ft | 467 kts | 95° |
| 2026-05-07 16:37 | 31.59400 | 120.22991 | 17831 ft | 461 kts | 95° |
| 2026-05-07 16:38 | 31.59217 | 120.26706 | 17301 ft | 453 kts | 94° |
| 2026-05-07 16:38 | 31.58994 | 120.30375 | 16755 ft | 447 kts | 98° |
| 2026-05-07 16:38 | 31.58352 | 120.33902 | 16236 ft | 439 kts | 109° |
| 2026-05-07 16:38 | 31.57357 | 120.37251 | 15733 ft | 432 kts | 111° |
| 2026-05-07 16:39 | 31.56364 | 120.40557 | 15246 ft | 426 kts | 110° |
| 2026-05-07 16:39 | 31.55392 | 120.43819 | 14751 ft | 421 kts | 110° |
| 2026-05-07 16:39 | 31.54436 | 120.47048 | 14288 ft | 417 kts | 109° |
| 2026-05-07 16:39 | 31.53490 | 120.50241 | 13798 ft | 412 kts | 109° |
| 2026-05-07 16:40 | 31.52566 | 120.53353 | 13309 ft | 407 kts | 109° |
| 2026-05-07 16:40 | 31.51640 | 120.56461 | 12849 ft | 401 kts | 109° |
| 2026-05-07 16:40 | 31.50724 | 120.59522 | 12396 ft | 396 kts | 109° |
| 2026-05-07 16:40 | 31.49814 | 120.62555 | 11937 ft | 392 kts | 110° |
| 2026-05-07 16:41 | 31.48912 | 120.65552 | 11498 ft | 389 kts | 110° |
| 2026-05-07 16:41 | 31.48015 | 120.68525 | 11070 ft | 385 kts | 110° |
| 2026-05-07 16:41 | 31.47138 | 120.71438 | 10856 ft | 371 kts | 110° |
| 2026-05-07 16:41 | 31.46570 | 120.73336 | 10774 ft | 361 kts | 110° |
| 2026-05-07 16:42 | 31.45755 | 120.76058 | 10648 ft | 347 kts | 110° |
| 2026-05-07 16:42 | 31.44980 | 120.78646 | 10530 ft | 335 kts | 110° |
| 2026-05-07 16:42 | 31.44218 | 120.81177 | 10412 ft | 324 kts | 110° |
| 2026-05-07 16:42 | 31.43478 | 120.83628 | 10217 ft | 316 kts | 110° |
| 2026-05-07 16:43 | 31.42748 | 120.86037 | 10061 ft | 311 kts | 110° |
| 2026-05-07 16:43 | 31.42022 | 120.88427 | 9758 ft | 310 kts | 110° |
| 2026-05-07 16:43 | 31.41304 | 120.90796 | 9475 ft | 308 kts | 110° |
| 2026-05-07 16:43 | 31.40589 | 120.93148 | 9193 ft | 305 kts | 110° |
| 2026-05-07 16:44 | 31.39880 | 120.95488 | 8929 ft | 304 kts | 110° |
| 2026-05-07 16:44 | 31.39177 | 120.97809 | 8758 ft | 303 kts | 110° |
| 2026-05-07 16:44 | 31.38472 | 121.00137 | 8590 ft | 303 kts | 110° |
| 2026-05-07 16:44 | 31.37767 | 121.02462 | 8422 ft | 303 kts | 109° |
| 2026-05-07 16:45 | 31.37063 | 121.04778 | 8253 ft | 302 kts | 110° |
| 2026-05-07 16:45 | 31.36355 | 121.07093 | 8079 ft | 301 kts | 110° |
| 2026-05-07 16:45 | 31.35650 | 121.09396 | 7910 ft | 300 kts | 110° |
| 2026-05-07 16:45 | 31.34950 | 121.11690 | 7741 ft | 299 kts | 110° |
| 2026-05-07 16:46 | 31.34256 | 121.13942 | 7567 ft | 298 kts | 110° |
| 2026-05-07 16:46 | 31.33550 | 121.16220 | 7392 ft | 296 kts | 110° |
| 2026-05-07 16:46 | 31.32799 | 121.18460 | 7214 ft | 295 kts | 118° |
| 2026-05-07 16:46 | 31.31577 | 121.20360 | 7041 ft | 293 kts | 139° |
| 2026-05-07 16:47 | 31.29911 | 121.21673 | 6872 ft | 289 kts | 159° |
| 2026-05-07 16:47 | 31.27994 | 121.22286 | 6705 ft | 284 kts | 178° |
| 2026-05-07 16:47 | 31.26026 | 121.22406 | 6536 ft | 283 kts | 180° |
| 2026-05-07 16:47 | 31.24060 | 121.22512 | 6362 ft | 282 kts | 180° |
| 2026-05-07 16:48 | 31.22093 | 121.22620 | 6191 ft | 283 kts | 179° |
| 2026-05-07 16:48 | 31.20126 | 121.22730 | 6023 ft | 283 kts | 179° |
| 2026-05-07 16:48 | 31.18152 | 121.22841 | 5703 ft | 284 kts | 179° |
| 2026-05-07 16:48 | 31.16173 | 121.22952 | 5401 ft | 285 kts | 178° |
| 2026-05-07 16:49 | 31.14190 | 121.23063 | 5093 ft | 284 kts | 178° |
| 2026-05-07 16:49 | 31.12219 | 121.23170 | 4793 ft | 283 kts | 178° |
| 2026-05-07 16:49 | 31.10249 | 121.23275 | 4487 ft | 282 kts | 177° |
| 2026-05-07 16:49 | 31.08301 | 121.23381 | 4250 ft | 276 kts | 176° |
| 2026-05-07 16:50 | 31.06429 | 121.23485 | 4108 ft | 264 kts | 176° |
| 2026-05-07 16:50 | 31.04628 | 121.23587 | 3921 ft | 254 kts | 175° |
| 2026-05-07 16:50 | 31.02972 | 121.23944 | 3809 ft | 235 kts | 149° |
| 2026-05-07 16:50 | 31.01763 | 121.25125 | 3678 ft | 225 kts | 117° |
| 2026-05-07 16:51 | 31.01279 | 121.26766 | 3371 ft | 209 kts | 86° |
| 2026-05-07 16:51 | 31.01338 | 121.28436 | 3092 ft | 205 kts | 81° |
| 2026-05-07 16:51 | 31.01411 | 121.30079 | 2919 ft | 200 kts | 81° |
| 2026-05-07 16:51 | 31.01475 | 121.31649 | 2833 ft | 192 kts | 81° |
| 2026-05-07 16:52 | 31.01709 | 121.33110 | 2737 ft | 176 kts | 55° |
| 2026-05-07 16:52 | 31.02570 | 121.34011 | 2640 ft | 167 kts | 20° |
| 2026-05-07 16:52 | 31.03713 | 121.34045 | 2519 ft | 166 kts | 353° |
| 2026-05-07 16:52 | 31.04812 | 121.33865 | 2369 ft | 154 kts | 6° |
| 2026-05-07 16:53 | 31.05851 | 121.33909 | 2241 ft | 146 kts | 5° |
| 2026-05-07 16:53 | 31.06843 | 121.33901 | 2129 ft | 139 kts | 4° |
| 2026-05-07 16:53 | 31.07775 | 121.33871 | 2080 ft | 130 kts | 3° |
| 2026-05-07 16:53 | 31.08661 | 121.33833 | 1984 ft | 126 kts | 3° |
| 2026-05-07 16:54 | 31.09522 | 121.33793 | 1826 ft | 125 kts | 3° |
| 2026-05-07 16:54 | 31.10398 | 121.33748 | 1662 ft | 124 kts | 2° |
| 2026-05-07 16:54 | 31.11258 | 121.33704 | 1491 ft | 123 kts | 3° |
| 2026-05-07 16:54 | 31.12114 | 121.33655 | 1328 ft | 123 kts | 2° |
| 2026-05-07 16:55 | 31.12963 | 121.33604 | 1177 ft | 122 kts | 1° |
| 2026-05-07 16:55 | 31.13814 | 121.33549 | 1029 ft | 123 kts | 1° |
| 2026-05-07 16:55 | 31.14673 | 121.33497 | 865 ft | 124 kts | 1° |
| 2026-05-07 16:55 | 31.15542 | 121.33461 | 672 ft | 125 kts | 2° |
| 2026-05-07 16:56 | 31.16436 | 121.33420 | 448 ft | 132 kts | 0° |
| 2026-05-07 16:56 | 31.17351 | 121.33372 | 317 ft | 129 kts | 359° |
| 2026-05-07 16:56 | 31.19086 | 121.33286 | 23 ft | 116 kts | 358° |
| 2026-05-07 16:57 | 31.19744 | 121.33252 | 19 ft | 70 kts | 358° |
| 2026-05-07 16:57 | 31.20077 | 121.33231 | 21 ft | 35 kts | 358° |
| 2026-05-07 16:57 | 31.20297 | 121.33167 | 23 ft | 32 kts | 331° |
| 2026-05-07 16:57 | 31.20369 | 121.33117 | 22 ft | 0 kts | 328° |
| 2026-05-07 17:00 | 31.20376 | 121.33112 | 22 ft | 7 kts | 330° |
| 2026-05-07 17:00 | 31.20459 | 121.33055 | 20 ft | 17 kts | 328° |
| 2026-05-07 17:00 | 31.20512 | 121.32987 | 19 ft | 11 kts | 264° |
| 2026-05-07 17:00 | 31.20505 | 121.32941 | 19 ft | 3 kts | 245° |
| 2026-05-07 17:01 | 31.20488 | 121.32930 | 19 ft | 4 kts | 199° |
| 2026-05-07 17:01 | 31.20450 | 121.32935 | 19 ft | 5 kts | 172° |
| 2026-05-07 17:01 | 31.20383 | 121.32941 | 19 ft | 11 kts | 176° |
| 2026-05-07 17:01 | 31.20308 | 121.32946 | 19 ft | 10 kts | 177° |
| 2026-05-07 17:02 | 31.20240 | 121.32950 | 19 ft | 9 kts | 177° |
| 2026-05-07 17:02 | 31.20176 | 121.32953 | 19 ft | 9 kts | 177° |
| 2026-05-07 17:02 | 31.20118 | 121.32957 | 19 ft | 8 kts | 176° |
| 2026-05-07 17:02 | 31.20066 | 121.32960 | 19 ft | 7 kts | 180° |
| 2026-05-07 17:03 | 31.20018 | 121.32960 | 19 ft | 7 kts | 177° |
| 2026-05-07 17:03 | 31.19974 | 121.32963 | 19 ft | 6 kts | 176° |
| 2026-05-07 17:03 | 31.19942 | 121.32964 | 19 ft | 0 kts | 187° |
| 2026-05-07 17:03 | 31.19932 | 121.32944 | 20 ft | 7 kts | 258° |
| 2026-05-07 17:04 | 31.19925 | 121.32893 | 19 ft | 6 kts | 258° |
| 2026-05-07 17:04 | 31.19918 | 121.32861 | 19 ft | 0 kts | 257° |
| 2026-05-07 17:04 | 31.19917 | 121.32852 | 19 ft | 0 kts | 257° |
| 2026-05-07 17:04 | 31.19916 | 121.32847 | 19 ft | 1 kts | 257° |
| 2026-05-07 17:05 | 31.19915 | 121.32845 | 19 ft | 0 kts | 257° |